Terminal Aerodrome Forecast
Issued by NWS Buffalo, NY

Home | Current Version | Previous Version | Text Only | Print | Product List | Glossary On
Versions: 1 2 3 4 5 6 7 8 9 10 11 12 13 14 15 16 17 18 19 20 21 22 23 24
704
FTUS41 KBUF 301738
TAFROC
TAF
KROC 301738Z 3018/3118 07010KT P6SM SCT080 BKN150
     FM310000 07007KT P6SM BKN080
     FM310600 07005KT P6SM VCSH BKN040
     FM310800 09005KT 6SM -SHRA OVC035
     FM311400 08008KT 6SM -SHRA SCT015 OVC025=

USA.gov is the U.S. government's official web portal to all federal, state and local government web resources and services.